sensor_id;sensor_type;location;lat;lon;timestamp;temperature;humidity
6186;DHT22;3126;52.738;8.316;2023-06-26T00:15:51;21.20;89.30
6186;DHT22;3126;52.738;8.316;2023-06-26T00:20:52;20.50;91.40
6186;DHT22;3126;52.738;8.316;2023-06-26T00:25:53;20.40;92.70
6186;DHT22;3126;52.738;8.316;2023-06-26T00:30:53;20.30;93.00
6186;DHT22;3126;52.738;8.316;2023-06-26T00:35:54;20.30;94.30
6186;DHT22;3126;52.738;8.316;2023-06-26T02:27:32;19.30;98.80
6186;DHT22;3126;52.738;8.316;2023-06-26T02:32:34;19.20;98.40
6186;DHT22;3126;52.738;8.316;2023-06-26T02:37:35;19.70;96.20
6186;DHT22;3126;52.738;8.316;2023-06-26T03:17:45;19.00;97.70
6186;DHT22;3126;52.738;8.316;2023-06-26T05:28:32;20.40;88.70
6186;DHT22;3126;52.738;8.316;2023-06-26T06:33:49;20.70;87.60
6186;DHT22;3126;52.738;8.316;2023-06-26T06:43:51;25.20;66.40
6186;DHT22;3126;52.738;8.316;2023-06-26T06:53:52;24.90;67.90
6186;DHT22;3126;52.738;8.316;2023-06-26T06:58:53;26.30;63.90
6186;DHT22;3126;52.738;8.316;2023-06-26T07:03:53;25.50;65.10
6186;DHT22;3126;52.738;8.316;2023-06-26T07:08:54;25.50;66.10
6186;DHT22;3126;52.738;8.316;2023-06-26T07:13:55;25.60;64.70
6186;DHT22;3126;52.738;8.316;2023-06-26T07:18:56;25.40;66.30
6186;DHT22;3126;52.738;8.316;2023-06-26T07:23:57;25.10;68.10
6186;DHT22;3126;52.738;8.316;2023-06-26T07:28:58;25.40;66.60
6186;DHT22;3126;52.738;8.316;2023-06-26T07:59:03;25.30;67.00
6186;DHT22;3126;52.738;8.316;2023-06-26T08:04:04;22.90;75.80
6186;DHT22;3126;52.738;8.316;2023-06-26T09:39:36;21.90;84.10
6186;DHT22;3126;52.738;8.316;2023-06-26T09:44:37;23.50;80.40
6186;DHT22;3126;52.738;8.316;2023-06-26T09:49:43;23.60;78.40
6186;DHT22;3126;52.738;8.316;2023-06-26T09:54:45;23.80;78.20
6186;DHT22;3126;52.738;8.316;2023-06-26T09:59:46;23.90;74.10
6186;DHT22;3126;52.738;8.316;2023-06-26T10:04:46;24.00;75.30
6186;DHT22;3126;52.738;8.316;2023-06-26T10:09:47;24.50;67.80
6186;DHT22;3126;52.738;8.316;2023-06-26T10:14:50;24.40;66.40
6186;DHT22;3126;52.738;8.316;2023-06-26T10:19:51;24.80;65.60
6186;DHT22;3126;52.738;8.316;2023-06-26T10:24:56;24.80;61.10
6186;DHT22;3126;52.738;8.316;2023-06-26T10:30:03;24.60;62.70
6186;DHT22;3126;52.738;8.316;2023-06-26T10:35:06;24.60;60.10
6186;DHT22;3126;52.738;8.316;2023-06-26T11:10:53;25.00;59.60
6186;DHT22;3126;52.738;8.316;2023-06-26T11:15:54;24.70;58.00
6186;DHT22;3126;52.738;8.316;2023-06-26T11:21:05;24.90;59.80
6186;DHT22;3126;52.738;8.316;2023-06-26T11:26:19;24.50;59.90
6186;DHT22;3126;52.738;8.316;2023-06-26T11:31:28;24.40;59.70
6186;DHT22;3126;52.738;8.316;2023-06-26T11:36:32;24.80;56.00
6186;DHT22;3126;52.738;8.316;2023-06-26T11:41:37;25.00;57.60
6186;DHT22;3126;52.738;8.316;2023-06-26T11:46:38;25.10;57.50
6186;DHT22;3126;52.738;8.316;2023-06-26T11:51:39;24.30;57.70
6186;DHT22;3126;52.738;8.316;2023-06-26T12:11:52;24.00;56.60
6186;DHT22;3126;52.738;8.316;2023-06-26T12:16:53;25.10;55.30
6186;DHT22;3126;52.738;8.316;2023-06-26T12:21:54;25.00;55.40
6186;DHT22;3126;52.738;8.316;2023-06-26T12:26:56;24.80;56.90
6186;DHT22;3126;52.738;8.316;2023-06-26T12:31:57;24.80;56.90
6186;DHT22;3126;52.738;8.316;2023-06-26T12:37:16;24.40;55.90
6186;DHT22;3126;52.738;8.316;2023-06-26T12:42:25;24.00;54.10
6186;DHT22;3126;52.738;8.316;2023-06-26T12:47:27;24.50;54.60
6186;DHT22;3126;52.738;8.316;2023-06-26T12:52:29;24.40;52.60
6186;DHT22;3126;52.738;8.316;2023-06-26T12:57:30;24.20;53.60
6186;DHT22;3126;52.738;8.316;2023-06-26T13:02:30;24.10;50.70
6186;DHT22;3126;52.738;8.316;2023-06-26T13:07:31;24.10;51.70
6186;DHT22;3126;52.738;8.316;2023-06-26T13:37:36;24.30;50.80
6186;DHT22;3126;52.738;8.316;2023-06-26T13:42:37;24.30;50.50
6186;DHT22;3126;52.738;8.316;2023-06-26T13:47:38;24.30;51.30
6186;DHT22;3126;52.738;8.316;2023-06-26T13:52:41;24.20;49.80
6186;DHT22;3126;52.738;8.316;2023-06-26T13:57:41;24.00;52.70
6186;DHT22;3126;52.738;8.316;2023-06-26T14:02:42;23.80;50.90
6186;DHT22;3126;52.738;8.316;2023-06-26T14:07:43;24.10;50.60
6186;DHT22;3126;52.738;8.316;2023-06-26T14:12:43;24.70;51.20
6186;DHT22;3126;52.738;8.316;2023-06-26T14:17:44;24.40;50.70
6186;DHT22;3126;52.738;8.316;2023-06-26T19:03:51;20.00;64.60
6186;DHT22;3126;52.738;8.316;2023-06-26T19:08:51;19.60;64.30
6186;DHT22;3126;52.738;8.316;2023-06-26T19:13:52;19.50;64.80
6186;DHT22;3126;52.738;8.316;2023-06-26T19:33:57;19.30;66.60
6186;DHT22;3126;52.738;8.316;2023-06-26T19:38:58;18.90;66.40
6186;DHT22;3126;52.738;8.316;2023-06-26T19:43:58;18.80;66.70
6186;DHT22;3126;52.738;8.316;2023-06-26T19:49:00;18.70;67.60
6186;DHT22;3126;52.738;8.316;2023-06-26T19:54:00;18.60;67.60
6186;DHT22;3126;52.738;8.316;2023-06-26T19:59:01;18.40;67.50
